Flight Track Log - Related Links

Times and Time Zones

All times are in EDT time to prevent confusion due to time zone crossing. See the ELT222 flight status page for this flight to view local times or setup timezone preferences in your user account.

Time Position Orientation Groundspeed Altitude Reporting Facility
EDT Latitude Longitude Course Direction KTS MPH feet Rate Location/Type
Sun 09:51:21 PM 39.5667 -104.7333 49° Northeast 241 277 10,700  Level Denver TRACON
Sun 09:52:16 PM 39.6267 -104.6978 25° Northeast 250 288 12,700 2,154 Climbing Denver Center
Sun 09:53:18 PM 39.7014 -104.6619 20° North 266 306 14,900 1,887 Climbing Denver Center
Sun 09:54:20 PM 39.7775 -104.6236 21° North 296 341 16,600 1,452 Climbing Denver Center
Sun 09:55:22 PM 39.8681 -104.5803 20° North 324 373 17,900 1,355 Climbing Denver Center
Sun 09:56:24 PM 39.9553 -104.5394 20° North 333 383 19,400 1,512 Climbing Denver Center
Sun 09:57:25 PM 40.0547 -104.4908 21° North 354 407 21,000 1,463 Climbing Denver Center
Sun 09:58:27 PM 40.1489 -104.4439 21° North 362 417 22,400 1,355 Climbing Denver Center
Sun 09:59:29 PM 40.2536 -104.3942 20° North 373 429 23,800 1,355 Climbing Denver Center
Sun 10:00:31 PM 40.3414 -104.3492 21° North 372 428 25,200 1,258 Climbing Denver Center
Sun 10:01:33 PM 40.4386 -104.3008 21° North 373 429 26,400 1,016 Climbing Denver Center
Sun 10:02:35 PM 40.5414 -104.2514 20° North 389 448 27,300 976 Climbing Denver Center
Sun 10:03:36 PM 40.6483 -104.1408 38° Northeast 412 474 28,400 927 Climbing Denver Center
Sun 10:04:38 PM 40.7331 -104.0350 43° Northeast 405 466 29,200 774 Climbing Denver Center
Sun 10:05:40 PM 40.8206 -103.9250 44° Northeast 434 499 30,000 774 Climbing Denver Center
Sun 10:06:42 PM 40.9078 -103.8122 44° Northeast 440 506 30,800 823 Climbing Denver Center
Sun 10:07:44 PM 40.9917 -103.6656 53° Northeast 454 522 31,700 780 Climbing Denver Center
Sun 10:08:45 PM 41.0572 -103.5325 57° Northeast 453 521 32,400 871 Climbing Denver Center
Sun 10:09:48 PM 41.1356 -103.3761 56° Northeast 457 526 33,500 1,016 Climbing Denver Center
Sun 10:10:49 PM 41.2006 -103.2450 57° Northeast 447 514 34,500 976 Climbing Denver Center
Sun 10:11:51 PM 41.2764 -103.0897 57° Northeast 450 518 35,500 919 Climbing Denver Center
Sun 10:12:53 PM 41.3408 -102.9581 57° Northeast 446 513 36,400 726 Climbing Denver Center
Sun 10:13:55 PM 41.4042 -102.8267 57° Northeast 443 510 37,000 293 Climbing Denver Center
Sun 10:14:56 PM 41.4817 -102.6678 57° Northeast 454 522 37,000  Level Denver Center
Sun 10:15:58 PM 41.5519 -102.5247 57° Northeast 473 544 37,000  Level Denver Center
Sun 10:17:00 PM 41.6347 -102.3525 57° Northeast 487 560 37,000  Level Denver Center
Sun 10:18:02 PM 41.7064 -102.2022 57° Northeast 496 571 37,000  Level Denver Center
Sun 10:19:04 PM 41.7894 -102.0250 58° Northeast 501 577 37,000  Level Denver Center
Sun 10:20:05 PM 41.8628 -101.8717 57° Northeast 508 585 37,000  Level Denver Center
Sun 10:21:07 PM 41.9356 -101.7183 57° Northeast 508 585 37,000  Level Denver Center
Sun 10:22:09 PM 42.0194 -101.5381 58° Northeast 508 585 37,000  Level Denver Center
Sun 10:23:11 PM 42.0911 -101.3833 58° Northeast 508 585 37,000  Level Denver Center
Sun 10:24:12 PM 42.1758 -101.2019 58° Northeast 511 588 37,000  Level Denver Center
Sun 10:25:14 PM 42.2456 -101.0469 59° Northeast 506 582 37,000  Level Denver Center
Sun 10:26:16 PM 42.3278 -100.8669 58° Northeast 504 580 37,000  Level Denver Center
Sun 10:27:17 PM 42.3992 -100.7119 58° Northeast 506 582 37,000  Level Denver Center
Sun 10:28:27 PM 42.4756 -100.5428 58° Northeast 504 580 37,000  Level Minneapolis Center
Sun 10:29:28 PM 42.5489 -100.3814 58° Northeast 503 579 37,000  Level Minneapolis Center
Sun 10:30:22 PM 42.6194 -100.2217 59° Northeast 503 579 37,000  Level Denver Center
Sun 10:31:24 PM 42.7003 -100.0378 59° Northeast 506 582 37,000  Level Denver Center
Sun 10:32:26 PM 42.7658 -99.8886 59° Northeast 500 575 37,000  Level Denver Center
Sun 10:33:28 PM 42.8386 -99.7239 59° Northeast 505 581 37,000  Level Denver Center
Sun 10:34:34 PM 42.9244 -99.5300 59° Northeast 504 580 37,000  Level Minneapolis Center
Sun 10:35:35 PM 42.9961 -99.3633 60° Northeast 506 582 37,000  Level Minneapolis Center
Sun 10:36:37 PM 43.0678 -99.1978 59° Northeast 507 583 37,000  Level Minneapolis Center
Sun 10:37:38 PM 43.1375 -99.0314 60° Northeast 508 585 37,000  Level Minneapolis Center
Sun 10:38:39 PM 43.2075 -98.8722 59° Northeast 498 573 37,000  Level Minneapolis Center
Sun 10:39:40 PM 43.2767 -98.7053 60° Northeast 502 578 37,000  Level Minneapolis Center
Sun 10:40:41 PM 43.3469 -98.5408 60° Northeast 503 579 37,000  Level Minneapolis Center
Sun 10:41:43 PM 43.4303 -98.3403 60° Northeast 504 580 37,000  Level Minneapolis Center
Sun 10:42:56 PM 43.4997 -98.1758 60° Northeast 501 577 37,000  Level Minneapolis Center
Sun 10:43:57 PM 43.5819 -97.9758 60° Northeast 500 575 37,000  Level Minneapolis Center
Sun 10:44:58 PM 43.6506 -97.8086 60° Northeast 501 577 37,000  Level Minneapolis Center
Sun 10:45:59 PM 43.7181 -97.6433 60° Northeast 497 572 37,000  Level Minneapolis Center
Sun 10:47:01 PM 43.7867 -97.4772 60° Northeast 499 574 37,000  Level Minneapolis Center
Sun 10:48:02 PM 43.8533 -97.3117 61° Northeast 496 571 37,000  Level Minneapolis Center
Sun 10:49:03 PM 43.9211 -97.1439 61° Northeast 498 573 37,000  Level Minneapolis Center
Sun 10:50:04 PM 43.9875 -96.9769 61° Northeast 496 571 37,000  Level Minneapolis Center
Sun 10:51:05 PM 44.0539 -96.8103 61° Northeast 495 570 37,000  Level Minneapolis Center
Sun 10:52:06 PM 44.1208 -96.6408 61° Northeast 498 573 37,000  Level Minneapolis Center
Sun 10:53:08 PM 44.2003 -96.4392 61° Northeast 495 570 37,000  Level Minneapolis Center
Sun 10:54:09 PM 44.2658 -96.2750 61° Northeast 495 570 37,000  Level Minneapolis Center
Sun 10:55:10 PM 44.3244 -96.1231 62° Northeast 496 571 37,000  Level Minneapolis Center
Sun 10:56:11 PM 44.3878 -95.9581 62° Northeast 483 556 37,000 -738 Level Minneapolis Center
Sun 10:57:12 PM 44.4617 -95.7658 62° Northeast 467 537 35,500 -2,164 Descending Minneapolis Center
Sun 10:58:13 PM 44.5183 -95.6167 62° Northeast 440 506 32,600 -2,803 Descending Minneapolis Center
Sun 10:59:14 PM 44.5789 -95.4586 62° Northeast 459 528 29,800 -2,803 Descending Minneapolis Center
Sun 11:00:15 PM 44.6203 -95.2864 71° East 465 535 26,900 -2,852 Descending Minneapolis Center
Sun 11:01:16 PM 44.6556 -95.1122 74° East 466 536 24,000 -2,754 Descending Minneapolis Center
Sun 11:02:17 PM 44.6906 -94.9469 73° East 450 518 21,300 -2,585 Descending Minneapolis Center
Sun 11:03:19 PM 44.7244 -94.7911 73° East 427 491 18,700 -2,195 Descending Minneapolis Center
Sun 11:04:20 PM 44.7486 -94.6728 74° East 407 468 16,800 -2,213 Descending Minneapolis Center
Sun 11:05:21 PM 44.7811 -94.5136 74° East 385 443 14,200 -2,557 Descending Minneapolis Center
Sun 11:06:22 PM 44.8142 -94.3561 73° East 343 395 11,600 -2,164 Descending Minneapolis Center
Sun 11:07:23 PM 44.8347 -94.2456 75° East 295 339 9,800 -1,672 Descending Minneapolis Center
Sun 11:08:24 PM 44.8381 -94.1364 87° East 282 325 8,200 -1,525 Descending Minneapolis Center
Sun 11:09:25 PM 44.8386 -94.0292 90° East 273 314 6,700 -1,463 Descending Minneapolis Center
Sun 11:10:27 PM 44.8383 -93.9244 90° East 269 310 5,200 -1,024 Descending Minneapolis Center
Sun 11:11:28 PM 44.8386 -93.8281 90° East 248 285 4,600 -639 Descending Minneapolis Center
Sun 11:12:29 PM 44.8386 -93.7400 90° East 226 260 3,900 -590 Descending Minneapolis Center
Sun 11:13:30 PM 44.8394 -93.6597 89° East 209 241 3,400 -492 Descending Minneapolis Center
Sun 11:15:00 PM 44.8275 -93.4586 97° East  Level Estimated
Sun 11:22:00 PM 44.8275 -93.4586 97° East  Level Estimated
Sun 11:23:00 PM 44.8275 -93.4586 97° East  Level Estimated
Sun 11:24:00 PM 44.8275 -93.4586 97° East  Level Estimated
Sun 11:25:00 PM 44.8275 -93.4586 97° East  Level Estimated
Sun 11:26:00 PM 44.8275 -93.4586 97° East  Level Estimated
Sun 11:27:00 PM 44.8275 -93.4586 97° East  Level Estimated
Sun 11:28:00 PM 44.8275 -93.4586 97° East  Level Estimated
Sun 11:29:00 PM 44.8275 -93.4586 97° East  Level Estimated

Login

Don't have an account? Register now (free) for customized features, flight alerts, and more!